Tiempo atmosférico en la estación meteorológica de Villaeles De Valdavia, Palencia (908 m.)



Fecha
DESCASC
Temp. máxima en grados centígrados (hora)
DESCASC
Temp. mínima en grados centígrados (hora)
DESCASC
Temp. media en grados centígrados
DESCASC
Racha de viento máxima en m/sg (hora)
DESCASC
Velocidad máxima media en intervalos de 10 minutos(hora)
DESCASC
Precipitaciones diarias en mm
DESCASC
Precipitaciones de 00:00 a 06:00 en mm
DESCASC
Precipitaciones de 06:00 a 12:00 en mm
DESCASC
Precipitaciones de 12:00 a 18:00 en mm
DESCASC
Precipitaciones de 18:00 a 24:00 en mm
DESCASC
22-08-2019 28.6 (18:30) 8.3 (07:50) 18.5 8.33 (13:10) 5 (11:20) 0 0 0 0 0
21-08-2019 28.9 (17:10) 10.4 (07:20) 19.6 11.67 (20:20) 7.78 (21:00) 0 0 0 0 0
20-08-2019 21.1 (16:20) 10.9 (07:30) 16 12.78 (13:30) 7.22 (13:30) 0 0 0 0 0
19-08-2019 19.6 (15:30) 11.3 (04:00) 15.5 13.33 (20:10) 7.78 (22:00) 0 0 0 0 0
18-08-2019 27.3 (16:30) 9.1 (00:00) 18.2 10 (21:30) 6.11 (16:40) 0 0 0 0 0
17-08-2019 31.7 (16:40) 10.1 (00:00) 20.9 11.11 (18:40) 6.67 (15:40) 0 0 0 0 0
16-08-2019 31.6 (17:20) 10.6 (00:00) 21.1 16.94 (15:30) 5.83 (15:10) 0 0 0 0 0
15-08-2019 28.3 (16:30) 11.5 (00:00) 19.9 10.28 (19:10) 6.11 (19:30) 0 0 0 0 0
14-08-2019 30.5 (17:00) 8.4 (00:00) 19.4 8.61 (13:40) 4.44 (19:20) 0 0 0 0 0
13-08-2019 25.6 (17:50) 7.3 (00:00) 16.5 9.17 (03:10) 5.28 (03:10) 0 0 0 0 0
12-08-2019 21.4 (17:00) 4.2 (00:00) 12.8 10.56 (20:30) 6.67 (19:40) 0 0 0 0 0
11-08-2019 22.6 (17:00) 10.5 (00:00) 16.6 11.67 (19:40) 7.22 (20:20) 4.4 4.2 0.2 0 0
10-08-2019 26.6 (18:20) 12.9 (00:00) 19.8 11.94 (14:10) 7.22 (22:50) 0 0 0 0 0
09-08-2019 25 (17:10) 16.6 (00:00) 20.8 18.33 (16:40) 11.67 (16:40) 1 0 1 0 0
08-08-2019 27.7 (16:40) 14.5 (00:00) 21.1 12.78 (18:10) 8.06 (18:00) 0 0 0 0 0
07-08-2019 25.5 (12:50) 14.7 (00:00) 20.1 13.33 (18:40) 8.33 (16:20) 0.2 0 0 0 0.2
06-08-2019 28.9 (17:20) 12.1 (00:00) 20.5 11.11 (22:40) 5.83 (21:30) 0.4 0 0 0 0.4
05-08-2019 31.9 (18:50) 11.5 (00:00) 21.7 10 (16:10) 5 (23:00) 0 0 0 0 0
04-08-2019 32 (19:10) 12.6 (00:00) 22.3 10.83 (16:10) 6.11 (21:20) 0 0 0 0 0
03-08-2019 34 (18:40) 12.7 (00:00) 23.3 11.39 (21:00) 6.39 (21:00) 0 0 0 0 0
02-08-2019 31.8 (18:50) 10.9 (00:00) 21.3 10.28 (20:20) 7.22 (20:00) 0 0 0 0 0
01-08-2019 27.8 (16:30) 12.2 (00:00) 20 11.39 (20:30) 7.22 (20:10) 0 0 0 0 0
31-07-2019 25.6 (16:20) 8.8 (00:00) 17.2 11.11 (02:00) 6.39 (02:00) 0 0 0 0 0
30-07-2019 24.8 (17:30) 9.9 (00:00) 17.3 11.11 (18:40) 7.22 (18:30) 0 0 0 0 0
29-07-2019 25.6 (16:50) 7.1 (00:00) 16.4 11.11 (18:40) 6.67 (18:20) 0 0 0 0 0
28-07-2019 24.6 (19:10) 6.2 (00:00) 15.4 8.33 (16:00) 5 (17:10) 0 0 0 0 0
27-07-2019 16.8 (20:20) 11.5 (00:00) 14.1 8.06 (16:30) 5 (16:30) 10.4 1.8 3 5.6 0
26-07-2019 23.4 (16:00) 13.5 (00:00) 18.4 10.56 (14:40) 7.22 (18:00) 0.2 0 0.2 0 0

Gráficas

Temp. máximas Temp. mínimas Temp. medias Precipitaciones Rachas de viento máximas Velocidades máximas media en intervalos de 10 minutos

Datos horarios

Fecha y hora oficial Temperatura (ºC) Velocidad del viento (km/h) Dirección del viento Racha (km/h) Dirección de racha Precipitación (mm) Presión (hPa) Tendencia (hPa) Humedad (%)
2019-08-24 23:00:00 21.1 10 Nordeste 24 Nordeste 0 -- -- 59
2019-08-24 22:00:00 22.3 0 Calma 4 Oeste 0 -- -- 37
2019-08-24 21:00:00 26.9 0 Calma 16 Sudoeste 0 -- -- 30
2019-08-24 20:00:00 30 10 Sudoeste 22 Sudoeste 0 -- -- 27
2019-08-24 19:00:00 30.2 13 Sudoeste 23 Oeste 0 -- -- 25
2019-08-24 18:00:00 32.3 16 Sudoeste 32 Sudoeste 0 -- -- 23
2019-08-24 17:00:00 30.8 13 Oeste 29 Oeste 0 -- -- 25
2019-08-24 16:00:00 31.5 20 Sudoeste 38 Sudoeste 0 -- -- 24
2019-08-24 15:00:00 31.4 18 Oeste 33 Sudoeste 0 -- -- 24
2019-08-24 14:00:00 31 12 Sur 27 Sudoeste 0 -- -- 25
2019-08-24 13:00:00 28.8 6 Oeste 17 Sur 0 -- -- 28
2019-08-24 12:00:00 27.9 10 Sur 19 Este 0 -- -- 32
2019-08-24 11:00:00 24.5 9 Nordeste 14 Nordeste 0 -- -- 37
2019-08-24 10:00:00 18.7 4 Noroeste 10 Noroeste 0 -- -- 50
2019-08-24 09:00:00 13.8 9 Nordeste 14 Noroeste 0 -- -- 61
2019-08-24 08:00:00 11.6 5 Norte 15 Norte 0 -- -- 66
2019-08-24 07:00:00 11.3 8 Noroeste 13 Norte 0 -- -- 70
2019-08-24 06:00:00 11.8 7 Norte 11 Norte 0 -- -- 67
2019-08-24 05:00:00 12.4 5 Norte 11 Norte 0 -- -- 66
2019-08-24 04:00:00 13.1 5 Norte 9 Norte 0 -- -- 63
2019-08-24 03:00:00 15.2 5 Norte 12 Noroeste 0 -- -- 57
2019-08-24 02:00:00 16.7 4 Noroeste 10 Noroeste 0 -- -- 53
2019-08-24 01:00:00 18 2 Norte 9 Noroeste 0 -- -- 50
2019-08-24 00:00:00 18.9 4 Norte 7 Nordeste 0 -- -- 47
2019-08-23 23:00:00 21.1 3 Norte 19 Nordeste 0 -- -- 42
2019-08-23 22:00:00 23.2 14 Nordeste 25 Nordeste 0 -- -- 37
2019-08-23 21:00:00 26.2 15 Nordeste 26 Nordeste 0 -- -- 30
2019-08-23 20:00:00 31.7 9 Este 15 Este 0 -- -- 15
2019-08-23 19:00:00 31.6 8 Este 23 Este 0 -- -- 14
2019-08-23 18:00:00 32.5 9 Sudeste 18 Sudeste 0 -- -- 15
2019-08-23 17:00:00 31.9 9 Oeste 23 Sudoeste 0 -- -- 15
2019-08-23 16:00:00 31.2 9 Sur 37 Sudoeste 0 -- -- 17
2019-08-23 15:00:00 30.7 11 Sudoeste 23 Sudoeste 0 -- -- 18
2019-08-23 14:00:00 29.2 5 Sur 19 Sur 0 -- -- 23
2019-08-23 13:00:00 27.5 9 Sur 18 Sur 0 -- -- 26
2019-08-23 12:00:00 24.3 7 Sudoeste 17 Sur 0 -- -- 33
2019-08-23 11:00:00 21.2 9 Sur 14 Sur 0 -- -- 38
2019-08-23 10:00:00 15.6 2 Noroeste 10 Noroeste 0 -- -- 46
2019-08-23 09:00:00 10.6 4 Norte 14 Norte 0 -- -- 59
2019-08-23 08:00:00 8.2 7 Norte 12 Norte 0 -- -- 69
2019-08-23 07:00:00 8.5 5 Norte 17 Noroeste 0 -- -- 72
2019-08-23 06:00:00 8.9 8 Norte 14 Noroeste 0 -- -- 76
2019-08-23 05:00:00 9.6 4 Norte 11 Norte 0 -- -- 74
2019-08-23 04:00:00 10.1 5 Norte 14 Noroeste 0 -- -- 78
2019-08-23 03:00:00 12 10 Norte 15 Norte 0 -- -- 73
2019-08-23 02:00:00 13.1 4 Norte 9 Norte 0 -- -- 70
2019-08-23 01:00:00 14.5 6 Norte 9 Norte 0 -- -- 65
2019-08-23 00:00:00 16 3 Norte 11 Nordeste 0 -- -- 57
2019-08-22 23:00:00 18.2 6 Nordeste 14 Nordeste 0 -- -- 49
2019-08-22 22:00:00 19.1 7 Nordeste 17 Nordeste 0 -- -- 40
2019-08-22 21:00:00 23.2 7 Este 21 Este 0 -- -- 31
2019-08-22 20:00:00 26.7 12 Este 21 Este 0 -- -- 22
2019-08-22 19:00:00 28 13 Este 28 Este 0 -- -- 22
2019-08-22 18:00:00 27.9 15 Nordeste 29 Nordeste 0 -- -- 20
2019-08-22 17:00:00 28.4 10 Este 25 Nordeste 0 -- -- 19
2019-08-22 16:00:00 28.2 10 Este 26 Este 0 -- -- 18
2019-08-22 15:00:00 27 14 Este 27 Este 0 -- -- 17
2019-08-22 14:00:00 25.7 13 Este 30 Nordeste 0 -- -- 22
2019-08-22 13:00:00 23.8 14 Este 26 Sudeste 0 -- -- 27
2019-08-22 12:00:00 21.3 18 Nordeste 26 Nordeste 0 -- -- 35
2019-08-22 11:00:00 19.4 15 Este 24 Nordeste 0 -- -- 41
2019-08-22 10:00:00 16.2 12 Nordeste 20 Este 0 -- -- 52
2019-08-22 09:00:00 10 5 Noroeste 13 Noroeste 0 -- -- 78
2019-08-22 08:00:00 8.3 7 Norte 12 Noroeste 0 -- -- 81
2019-08-22 07:00:00 9.4 6 Norte 12 Nordeste 0 -- -- 80
2019-08-22 06:00:00 9.6 8 Nordeste 14 Nordeste 0 -- -- 82
2019-08-22 05:00:00 10.7 2 Norte 13 Nordeste 0 -- -- 81
2019-08-22 04:00:00 11.9 8 Nordeste 20 Nordeste 0 -- -- 80
2019-08-22 03:00:00 12.8 13 Nordeste 24 Norte 0 -- -- 84
2019-08-22 02:00:00 13.4 11 Nordeste 24 Este 0 -- -- 85
2019-08-22 01:00:00 14.2 6 Nordeste 17 Norte 0 -- -- 81
2019-08-22 00:00:00 14.6 4 Noroeste 19 Este 0 -- -- 78
2019-08-21 23:00:00 15.6 12 Nordeste 41 Nordeste 0 -- -- 74
2019-08-21 22:00:00 16.4 26 Nordeste 42 Nordeste 0 -- -- 74
2019-08-21 21:00:00 19.1 28 Nordeste 42 Este 0 -- -- 65
2019-08-21 20:00:00 22.5 22 Nordeste 36 Nordeste 0 -- -- 54
2019-08-21 19:00:00 26 19 Este 36 Este 0 -- -- 42
2019-08-21 18:00:00 28.4 12 Este 27 Nordeste 0 -- -- 33
2019-08-21 17:00:00 28.5 7 Sudeste 16 Este 0 -- -- 34
2019-08-21 16:00:00 27.1 5 Nordeste 15 Nordeste 0 -- -- 38
2019-08-21 15:00:00 25.6 7 Oeste 17 Norte 0 -- -- 42
2019-08-21 14:00:00 24.2 8 Nordeste 22 Sudeste 0 -- -- 46
2019-08-21 13:00:00 22 9 Nordeste 20 Nordeste 0 -- -- 53
2019-08-21 12:00:00 19.9 8 Este 20 Este 0 -- -- 59
2019-08-21 11:00:00 17.8 11 Nordeste 24 Nordeste 0 -- -- 65
2019-08-21 10:00:00 14.6 9 Nordeste 17 Nordeste 0 -- -- 74
2019-08-21 09:00:00 11.7 4 Norte 15 Norte 0 -- -- 85
2019-08-21 08:00:00 10.6 5 Norte 12 Nordeste 0 -- -- 88
2019-08-21 07:00:00 10.6 4 Noroeste 14 Nordeste 0 -- -- 87
2019-08-21 06:00:00 11.2 4 Norte 16 Norte 0 -- -- 85
2019-08-21 05:00:00 11.5 4 Norte 18 Nordeste 0 -- -- 84
2019-08-21 04:00:00 11.7 8 Nordeste 18 Nordeste 0 -- -- 83
2019-08-21 03:00:00 11.8 7 Nordeste 24 Nordeste 0 -- -- 81
2019-08-21 02:00:00 11.8 16 Nordeste 36 Nordeste 0 -- -- 81
2019-08-21 01:00:00 12 21 Nordeste 39 Nordeste 0 -- -- 81
2019-08-21 00:00:00 12.5 21 Nordeste 36 Nordeste 0 -- -- 77
2019-08-20 23:00:00 13.1 21 Nordeste 34 Nordeste 0 -- -- 74
2019-08-20 22:00:00 14.1 19 Nordeste 33 Nordeste 0 -- -- 67
2019-08-20 21:00:00 15.6 18 Nordeste 41 Nordeste 0 -- -- 60
2019-08-20 20:00:00 17.6 21 Nordeste 39 Nordeste 0 -- -- 55
2019-08-20 19:00:00 18.9 21 Nordeste 37 Nordeste 0 -- -- 51
2019-08-20 18:00:00 20.4 21 Nordeste 40 Nordeste 0 -- -- 46
2019-08-20 17:00:00 20.3 23 Nordeste 42 Este 0 -- -- 47
2019-08-20 16:00:00 20.7 23 Nordeste 41 Nordeste 0 -- -- 46
2019-08-20 15:00:00 19.3 20 Nordeste 46 Este 0 -- -- 50
2019-08-20 14:00:00 19.8 19 Nordeste 46 Nordeste 0 -- -- 51
2019-08-20 13:00:00 18.2 23 Nordeste 44 Nordeste 0 -- -- 57
2019-08-20 12:00:00 16.7 19 Este 41 Este 0 -- -- 63
2019-08-20 11:00:00 15.3 22 Nordeste 45 Nordeste 0 -- -- 69
2019-08-20 10:00:00 14.8 13 Nordeste 32 Nordeste 0 -- -- 69
2019-08-20 09:00:00 12.3 15 Nordeste 24 Nordeste 0 -- -- 79
2019-08-20 08:00:00 10.9 8 Nordeste 22 Nordeste 0 -- -- 85
2019-08-20 07:00:00 11.2 8 Nordeste 25 Nordeste 0 -- -- 85
2019-08-20 06:00:00 11.6 11 Nordeste 28 Norte 0 -- -- 85
2019-08-20 05:00:00 11.8 13 Nordeste 25 Nordeste 0 -- -- 82
2019-08-20 04:00:00 12.3 8 Nordeste 31 Nordeste 0 -- -- 80
2019-08-20 03:00:00 12.4 15 Nordeste 32 Nordeste 0 -- -- 83
2019-08-20 02:00:00 12.6 10 Nordeste 40 Nordeste 0 -- -- 82
2019-08-20 01:00:00 12.6 22 Nordeste 38 Nordeste 0 -- -- 80
2019-08-20 00:00:00 12.6 10 Nordeste 36 Nordeste 0 -- -- 78
2019-08-19 23:00:00 12.7 21 Nordeste 41 Nordeste 0 -- -- 80
2019-08-19 22:00:00 12.8 28 Nordeste 47 Nordeste 0 -- -- 79
2019-08-19 21:00:00 13.9 22 Nordeste 48 Nordeste 0 -- -- 74
2019-08-19 20:00:00 15.9 24 Nordeste 46 Nordeste 0 -- -- 67
2019-08-19 19:00:00 16.5 21 Este 41 Nordeste 0 -- -- 66
2019-08-19 18:00:00 18.4 19 Nordeste 42 Este 0 -- -- 58
2019-08-19 17:00:00 18.6 20 Nordeste 37 Este 0 -- -- 58
2019-08-19 16:00:00 18.7 23 Nordeste 41 Este 0 -- -- 57
2019-08-19 15:00:00 18.7 23 Este 38 Nordeste 0 -- -- 57
2019-08-19 14:00:00 18.8 19 Este 37 Este 0 -- -- 57
2019-08-19 13:00:00 18.3 18 Nordeste 41 Este 0 -- -- 58
2019-08-19 12:00:00 17.2 23 Este 40 Nordeste 0 -- -- 62
2019-08-19 11:00:00 16.4 19 Nordeste 40 Este 0 -- -- 66
2019-08-19 10:00:00 13.9 22 Nordeste 42 Este 0 -- -- 76
2019-08-19 09:00:00 12.4 21 Nordeste 36 Nordeste 0 -- -- 82
2019-08-19 08:00:00 11.7 17 Nordeste 27 Nordeste 0 -- -- 83
2019-08-19 07:00:00 11.8 13 Nordeste 28 Este 0 -- -- 83
2019-08-19 06:00:00 11.8 13 Nordeste 26 Nordeste 0 -- -- 84
2019-08-19 05:00:00 11.8 9 Nordeste 23 Nordeste 0 -- -- 84
2019-08-19 04:00:00 11.3 5 Nordeste 22 Este 0 -- -- 85
2019-08-19 03:00:00 11.4 8 Nordeste 28 Nordeste 0 -- -- 86
2019-08-19 02:00:00 11.6 14 Nordeste 29 Este 0 -- -- 86
2019-08-19 01:00:00 12 13 Nordeste 27 Nordeste 0 -- -- 85
2019-08-19 00:00:00 12.5 20 Nordeste 35 Nordeste 0 -- -- 84
2019-08-18 23:00:00 13.2 21 Nordeste 36 Nordeste 0 -- -- 82
2019-08-18 22:00:00 14.1 22 Nordeste 36 Nordeste 0 -- -- 81
2019-08-18 21:00:00 16.5 18 Nordeste 32 Este 0 -- -- 74
2019-08-18 20:00:00 18.9 15 Este 26 Este 0 -- -- 66
2019-08-18 19:00:00 22.3 8 Norte 21 Norte 0 -- -- 59
2019-08-18 18:00:00 23 10 Noroeste 33 Noroeste 0 -- -- 56
2019-08-18 17:00:00 25.4 16 Noroeste 33 Noroeste 0 -- -- 53
2019-08-18 16:00:00 26.2 19 Sudoeste 32 Sudoeste 0 -- -- 41
2019-08-18 15:00:00 26.7 17 Sudoeste 31 Sudoeste 0 -- -- 45
2019-08-18 14:00:00 26.1 18 Sudoeste 32 Sudoeste 0 -- -- 49
2019-08-18 13:00:00 23.9 14 Oeste 27 Sur 0 -- -- 53
2019-08-18 12:00:00 23 15 Sudoeste 31 Sudoeste 0 -- -- 53
2019-08-18 11:00:00 21.7 15 Sudoeste 23 Sudoeste 0 -- -- 53
2019-08-18 10:00:00 17.7 11 Sur 15 Sur 0 -- -- 65
2019-08-18 09:00:00 12.4 4 Sudeste 7 Sudeste 0 -- -- 79
2019-08-18 08:00:00 9.3 5 Nordeste 7 Nordeste 0 -- -- 84
2019-08-18 07:00:00 9.5 4 Nordeste 6 Nordeste 0 -- -- 82
2019-08-18 06:00:00 10.6 5 Nordeste 9 Norte 0 -- -- 80
2019-08-18 05:00:00 12.1 0 Calma 4 Nordeste 0 -- -- 71
2019-08-18 04:00:00 13.2 3 Norte 5 Nordeste 0 -- -- 66
2019-08-18 03:00:00 15.4 3 Norte 8 Noroeste 0 -- -- 61
2019-08-18 02:00:00 17.6 5 Norte 12 Noroeste 0 -- -- 54
2019-08-18 01:00:00 20 6 Norte 15 Nordeste 0 -- -- 49
2019-08-18 00:00:00 20.8 7 Noroeste 15 Noroeste 0 -- -- 45
2019-08-17 23:00:00 23.4 8 Sudoeste 16 Sudoeste 0 -- -- 39
2019-08-17 22:00:00 25.1 8 Sudoeste 16 Oeste 0 -- -- 33
2019-08-17 21:00:00 29.5 8 Sudoeste 23 Sur 0 -- -- 28
2019-08-17 20:00:00 30.6 17 Sudoeste 33 Oeste 0 -- -- 26
2019-08-17 19:00:00 31.5 19 Oeste 40 Sudoeste 0 -- -- 27
2019-08-17 18:00:00 31.5 17 Sudoeste 36 Sudoeste 0 -- -- 26
2019-08-17 17:00:00 31.3 20 Sudoeste 37 Sudoeste 0 -- -- 26
2019-08-17 16:00:00 30.8 23 Sudoeste 37 Sudoeste 0 -- -- 28
2019-08-17 15:00:00 29.7 16 Oeste 37 Sudoeste 0 -- -- 30
2019-08-17 14:00:00 28.4 20 Oeste 30 Oeste 0 -- -- 33
2019-08-17 13:00:00 26.7 15 Oeste 24 Sudoeste 0 -- -- 38
2019-08-17 12:00:00 24.3 7 Sur 22 Sudoeste 0 -- -- 43
2019-08-17 11:00:00 20.7 4 Sur 10 Sudoeste 0 -- -- 54
2019-08-17 10:00:00 16.5 0 Calma 7 Norte 0 -- -- 68
2019-08-17 09:00:00 11.9 4 Noroeste 9 Norte 0 -- -- 86
2019-08-17 08:00:00 10.2 3 Norte 11 Norte 0 -- -- 89
2019-08-17 07:00:00 10.6 5 Norte 9 Norte 0 -- -- 90
2019-08-17 06:00:00 11.2 4 Norte 11 Norte 0 -- -- 87
2019-08-17 05:00:00 12.1 2 Noroeste 9 Norte 0 -- -- 84
2019-08-17 04:00:00 13.4 6 Norte 13 Norte 0 -- -- 81
2019-08-17 03:00:00 14.5 6 Nordeste 11 Norte 0 -- -- 74
2019-08-17 02:00:00 15.4 4 Norte 8 Norte 0 -- -- 70
2019-08-17 01:00:00 17.6 2 Noroeste 8 Norte 0 -- -- 64
2019-08-17 00:00:00 19.3 3 Noroeste 12 Nordeste 0 -- -- 61
2019-08-16 23:00:00 20.8 5 Norte 19 Nordeste 0 -- -- 61
2019-08-16 22:00:00 22.4 13 Nordeste 19 Nordeste 0 -- -- 48
2019-08-16 21:00:00 27.5 4 Noroeste 21 Oeste 0 -- -- 31
2019-08-16 20:00:00 30.4 13 Oeste 26 Oeste 0 -- -- 26
2019-08-16 19:00:00 31.1 15 Oeste 28 Oeste 0 -- -- 24
2019-08-16 18:00:00 31.4 16 Oeste 30 Oeste 0 -- -- 27
2019-08-16 17:00:00 31.3 15 Oeste 31 Sudoeste 0 -- -- 28
2019-08-16 16:00:00 30.7 17 Oeste 61 Sudoeste 0 -- -- 30
2019-08-16 15:00:00 30.1 13 Sudoeste 28 Sudoeste 0 -- -- 32
2019-08-16 14:00:00 28.6 17 Sudoeste 28 Sudoeste 0 -- -- 34
2019-08-16 13:00:00 27.8 13 Sur 23 Sur 0 -- -- 39
2019-08-16 12:00:00 24.9 4 Este 10 Sur 0 -- -- 45
2019-08-16 11:00:00 21.4 3 Sur 9 Norte 0 -- -- 54
2019-08-16 10:00:00 17.2 6 Norte 13 Noroeste 0 -- -- 71
2019-08-16 09:00:00 12.7 9 Norte 16 Norte 0 -- -- 91
2019-08-16 08:00:00 10.8 10 Norte 16 Noroeste 0 -- -- 94
2019-08-16 07:00:00 10.9 5 Norte 13 Norte 0 -- -- 95
2019-08-16 06:00:00 11.2 5 Norte 13 Noroeste 0 -- -- 95
2019-08-16 05:00:00 11.7 5 Norte 10 Nordeste 0 -- -- 94
2019-08-16 04:00:00 11.6 2 Norte 8 Noroeste 0 -- -- 90
2019-08-16 03:00:00 12.8 4 Norte 10 Norte 0 -- -- 89
2019-08-16 02:00:00 13.5 4 Norte 10 Norte 0 -- -- 86
2019-08-16 01:00:00 14.6 6 Nordeste 20 Nordeste 0 -- -- 82
2019-08-16 00:00:00 15.7 6 Nordeste 19 Nordeste 0 -- -- 77
2019-08-15 23:00:00 16.4 9 Nordeste 24 Nordeste 0 -- -- 75
2019-08-15 22:00:00 17.8 14 Nordeste 26 Este 0 -- -- 70
2019-08-15 21:00:00 20.6 14 Nordeste 30 Este 0 -- -- 59
2019-08-15 20:00:00 23.1 16 Nordeste 37 Este 0 -- -- 52
2019-08-15 19:00:00 25.1 19 Nordeste 32 Nordeste 0 -- -- 46
2019-08-15 18:00:00 26.5 21 Nordeste 33 Nordeste 0 -- -- 43
2019-08-15 17:00:00 27.1 11 Este 31 Sudeste 0 -- -- 41
2019-08-15 16:00:00 27.1 11 Nordeste 28 Sur 0 -- -- 41
2019-08-15 15:00:00 26.3 5 Este 24 Este 0 -- -- 42
2019-08-15 14:00:00 24.9 10 Nordeste 22 Este 0 -- -- 45
2019-08-15 13:00:00 23.1 9 Nordeste 19 Nordeste 0 -- -- 51
2019-08-15 12:00:00 21.3 9 Este 18 Nordeste 0 -- -- 58
2019-08-15 11:00:00 19.2 7 Este 17 Este 0 -- -- 69
2019-08-15 10:00:00 16.6 7 Nordeste 13 Este 0 -- -- 82
2019-08-15 09:00:00 13.5 0 Calma 7 Norte 0 -- -- 96
2019-08-15 08:00:00 11.5 3 Noroeste 10 Noroeste 0 -- -- 94
2019-08-15 07:00:00 12.5 6 Norte 12 Noroeste 0 -- -- 93
2019-08-15 06:00:00 13.1 5 Norte 10 Noroeste 0 -- -- 93
2019-08-15 05:00:00 13.3 3 Norte 8 Norte 0 -- -- 92
2019-08-15 04:00:00 13.6 3 Noroeste 12 Nordeste 0 -- -- 90
2019-08-15 03:00:00 14.2 4 Norte 9 Norte 0 -- -- 89
2019-08-15 02:00:00 14.7 2 Norte 8 Nordeste 0 -- -- 84
2019-08-15 01:00:00 15.8 3 Norte 11 Norte 0 -- -- 80
2019-08-15 00:00:00 17.1 3 Nordeste 14 Norte 0 -- -- 74
2019-08-14 23:00:00 19.1 7 Norte 13 Nordeste 0 -- -- 66
2019-08-14 22:00:00 21.3 2 Norte 21 Nordeste 0 -- -- 58
2019-08-14 21:00:00 23.7 11 Nordeste 26 Este 0 -- -- 52
2019-08-14 20:00:00 25.5 15 Este 30 Nordeste 0 -- -- 46
2019-08-14 19:00:00 29.3 7 Norte 23 Oeste 0 -- -- 38
2019-08-14 18:00:00 29.6 4 Sudoeste 24 Sur 0 -- -- 35
2019-08-14 17:00:00 30.5 13 Sudoeste 26 Sudoeste 0 -- -- 33
2019-08-14 16:00:00 28.1 7 Oeste 26 Oeste 0 -- -- 35
2019-08-14 15:00:00 27.4 9 Sudoeste 27 Oeste 0 -- -- 37
2019-08-14 14:00:00 25.8 9 Oeste 31 Sudoeste 0 -- -- 36
2019-08-14 13:00:00 24.5 15 Sudoeste 28 Sudoeste 0 -- -- 39
2019-08-14 12:00:00 22.6 12 Sur 19 Sur 0 -- -- 45
2019-08-14 11:00:00 19.1 6 Sur 12 Sur 0 -- -- 55
2019-08-14 10:00:00 14.8 2 Sur 7 Noroeste 0 -- -- 72
2019-08-14 09:00:00 10.4 4 Norte 12 Noroeste 0 -- -- 86
2019-08-14 08:00:00 8.4 3 Norte 11 Nordeste 0 -- -- 91
2019-08-14 07:00:00 8.5 6 Norte 13 Norte 0 -- -- 91
2019-08-14 06:00:00 8.7 5 Norte 10 Norte 0 -- -- 91
2019-08-14 05:00:00 9.1 4 Norte 11 Noroeste 0 -- -- 90
2019-08-14 04:00:00 9.5 4 Norte 10 Norte 0 -- -- 89
2019-08-14 03:00:00 10 5 Nordeste 9 Norte 0 -- -- 86
2019-08-14 02:00:00 10.8 0 Calma 8 Norte 0 -- -- 83
2019-08-14 01:00:00 12.5 0 Calma 5 Norte 0 -- -- 78
2019-08-14 00:00:00 14 3 Nordeste 7 Norte 0 -- -- 73
2019-08-13 23:00:00 15.8 4 Norte 22 Este 0 -- -- 66
2019-08-13 22:00:00 17.7 14 Este 25 Este 0 -- -- 59
2019-08-13 21:00:00 21.8 9 Nordeste 17 Este 0 -- -- 43
2019-08-13 20:00:00 24.2 3 Oeste 18 Sudoeste 0 -- -- 32
2019-08-13 19:00:00 24.5 9 Oeste 21 Sudoeste 0 -- -- 32
2019-08-13 18:00:00 25.4 9 Sur 21 Sur 0 -- -- 31
2019-08-13 17:00:00 23.3 5 Norte 18 Sudoeste 0 -- -- 32
2019-08-13 16:00:00 23 6 Noroeste 18 Oeste 0 -- -- 35
2019-08-13 15:00:00 21.5 6 Noroeste 18 Oeste 0 -- -- 39
2019-08-13 14:00:00 20.5 6 Noroeste 21 Este 0 -- -- 40
2019-08-13 13:00:00 19 10 Sudeste 20 Nordeste 0 -- -- 47
2019-08-13 12:00:00 16.7 6 Nordeste 23 Este 0 -- -- 55
2019-08-13 11:00:00 14.6 8 Nordeste 20 Nordeste 0 -- -- 60
2019-08-13 10:00:00 12.2 12 Nordeste 20 Nordeste 0 -- -- 71
2019-08-13 09:00:00 9.1 4 Este 8 Nordeste 0 -- -- 91
2019-08-13 08:00:00 7.5 4 Noroeste 8 Este 0 -- -- 93
2019-08-13 07:00:00 7.9 2 Nordeste 10 Nordeste 0 -- -- 90
2019-08-13 06:00:00 8.5 2 Norte 14 Norte 0 -- -- 89
2019-08-13 05:00:00 9 6 Nordeste 18 Nordeste 0 -- -- 87
2019-08-13 04:00:00 9.8 13 Nordeste 33 Nordeste 0 -- -- 84
2019-08-13 03:00:00 9.9 19 Nordeste 33 Nordeste 0 -- -- 84
2019-08-13 02:00:00 10 14 Nordeste 28 Nordeste 0 -- -- 83
2019-08-13 01:00:00 10.3 13 Este 32 Este 0 -- -- 81
2019-08-13 00:00:00 10.8 18 Nordeste 34 Este 0 -- -- 80
2019-08-12 23:00:00 11.3 18 Este 35 Este 0 -- -- 78
2019-08-12 22:00:00 11.9 18 Este 35 Nordeste 0 -- -- 73
2019-08-12 21:00:00 13.6 20 Nordeste 38 Nordeste 0 -- -- 67
2019-08-12 20:00:00 15 22 Nordeste 36 Este 0 -- -- 60
2019-08-12 19:00:00 17.7 16 Este 29 Nordeste 0 -- -- 52
2019-08-12 18:00:00 19.8 13 Este 30 Este 0 -- -- 45
2019-08-12 17:00:00 21.4 13 Este 33 Este 0 -- -- 40
2019-08-12 16:00:00 20.5 10 Este 22 Nordeste 0 -- -- 38
2019-08-12 15:00:00 19.1 5 Noroeste 23 Este 0 -- -- 41
2019-08-12 14:00:00 16.9 5 Este 14 Noroeste 0 -- -- 48
2019-08-12 13:00:00 16.7 8 Oeste 14 Oeste 0 -- -- 51
2019-08-12 12:00:00 13.8 6 Oeste 15 Sudoeste 0 -- -- 65
2019-08-12 11:00:00 13.4 8 Sur 13 Sur 0 -- -- 71
2019-08-12 10:00:00 10.2 0 Calma 9 Nordeste 0 -- -- 88
2019-08-12 09:00:00 6.2 4 Norte 10 Norte 0 -- -- 97
2019-08-12 08:00:00 4.7 0 Calma 8 Nordeste 0 -- -- 96
2019-08-12 07:00:00 5 4 Nordeste 10 Norte 0 -- -- 95
2019-08-12 06:00:00 5.5 4 Nordeste 9 Norte 0 -- -- 94
2019-08-12 05:00:00 6 2 Noroeste 12 Noroeste 0 -- -- 93
2019-08-12 04:00:00 7.3 4 Norte 8 Norte 0 -- -- 91
2019-08-12 03:00:00 8.5 0 Calma 7 Este 0 -- -- 86
2019-08-12 02:00:00 9.6 2 Este 9 Este 0 -- -- 82
2019-08-12 01:00:00 10.6 2 Nordeste 9 Este 0 -- -- 80
2019-08-12 00:00:00 11.5 5 Nordeste 19 Nordeste 0 -- -- 78
2019-08-11 23:00:00 12 8 Nordeste 19 Norte 0 -- -- 76
2019-08-11 22:00:00 12.1 6 Norte 34 Nordeste 0 -- -- 76
2019-08-11 21:00:00 13.8 13 Nordeste 41 Este 0 -- -- 71
2019-08-11 20:00:00 15.7 20 Este 42 Este 0 -- -- 69
2019-08-11 19:00:00 17.8 17 Este 31 Este 0 -- -- 63
2019-08-11 18:00:00 21 11 Oeste 32 Sudoeste 0 -- -- 36
2019-08-11 17:00:00 22.6 14 Oeste 29 Oeste 0 -- -- 38
2019-08-11 16:00:00 21.1 20 Sudoeste 35 Sudoeste 0 -- -- 43
2019-08-11 15:00:00 19.9 8 Oeste 28 Oeste 0 -- -- 51
2019-08-11 14:00:00 20.5 12 Sur 26 Sur 0 -- -- 57
2019-08-11 13:00:00 19.5 12 Sudoeste 19 Sur 0 -- -- 65
2019-08-11 12:00:00 16.6 5 Sur 14 Sur 0 -- -- 75
2019-08-11 11:00:00 15.8 7 Sur 13 Sur 0 -- -- 83
2019-08-11 10:00:00 14.1 4 Sudeste 14 Nordeste 0 -- -- 89
2019-08-11 09:00:00 11.9 4 Norte 8 Norte 0.2 -- -- 93
2019-08-11 08:00:00 11 3 Norte 12 Nordeste 0 -- -- 93
2019-08-11 07:00:00 10.9 5 Norte 13 Nordeste 0 -- -- 93
2019-08-11 06:00:00 10.6 7 Norte 14 Nordeste 2.4 -- -- 92
2019-08-11 05:00:00 11.4 4 Norte 18 Oeste 1 -- -- 88
2019-08-11 04:00:00 12 9 Este 24 Nordeste 0.8 -- -- 86
2019-08-11 03:00:00 13.6 6 Nordeste 28 Nordeste 0 -- -- 69
2019-08-11 02:00:00 13.4 14 Nordeste 28 Nordeste 0 -- -- 69
2019-08-11 01:00:00 12.9 12 Nordeste 36 Nordeste 0 -- -- 71
2019-08-11 00:00:00 12.9 23 Nordeste 41 Este 0 -- -- 74
2019-08-10 23:00:00 13.1 22 Nordeste 42 Nordeste 0 -- -- 79
2019-08-10 22:00:00 14.1 20 Nordeste 34 Nordeste 0 -- -- 76
2019-08-10 21:00:00 16.9 17 Nordeste 31 Nordeste 0 -- -- 66
2019-08-10 20:00:00 23.5 8 Sudoeste 26 Sudoeste 0 -- -- 30
2019-08-10 19:00:00 25.6 14 Sudoeste 27 Sudoeste 0 -- -- 27
2019-08-10 18:00:00 26 14 Sudoeste 28 Sudoeste 0 -- -- 26
2019-08-10 17:00:00 26.2 17 Sur 31 Sur 0 -- -- 28
2019-08-10 16:00:00 24.6 12 Oeste 31 Oeste 0 -- -- 32
2019-08-10 15:00:00 23.3 13 Sudoeste 43 Oeste 0 -- -- 33
2019-08-10 14:00:00 22.9 13 Sur 27 Sudoeste 0 -- -- 34
2019-08-10 13:00:00 21.3 8 Sudoeste 21 Sudoeste 0 -- -- 39
2019-08-10 12:00:00 20.3 13 Sudoeste 19 Sudoeste 0 -- -- 43
2019-08-10 11:00:00 18.7 9 Sur 19 Noroeste 0 -- -- 50
2019-08-10 10:00:00 16.8 4 Nordeste 8 Noroeste 0 -- -- 59
2019-08-10 09:00:00 14.6 5 Sur 10 Sudoeste 0 -- -- 72
2019-08-10 08:00:00 13.6 4 Este 10 Sudoeste 0 -- -- 73
2019-08-10 07:00:00 13.8 4 Sudoeste 10 Sudoeste 0 -- -- 72
2019-08-10 06:00:00 13.7 3 Sur 9 Sudeste 0 -- -- 71
2019-08-10 05:00:00 14.1 4 Sudoeste 8 Sudoeste 0 -- -- 70
2019-08-10 04:00:00 14.6 7 Sur 10 Sur 0 -- -- 67
2019-08-10 03:00:00 14.9 9 Sur 10 Sur 0 -- -- 65
2019-08-10 02:00:00 15 4 Sudoeste 9 Sudeste 0 -- -- 65
2019-08-10 01:00:00 15.3 3 Este 15 Noroeste 0 -- -- 64
2019-08-10 00:00:00 16.6 10 Noroeste 18 Sudoeste 0 -- -- 60
2019-08-09 23:00:00 17.9 10 Oeste 23 Oeste 0 -- -- 55
2019-08-09 22:00:00 19 16 Oeste 28 Oeste 0 -- -- 49
2019-08-09 21:00:00 20.4 19 Oeste 35 Oeste 0 -- -- 46
2019-08-09 20:00:00 21.1 26 Oeste 41 Oeste 0 -- -- 43
2019-08-09 19:00:00 22.8 28 Oeste 49 Sudoeste 0 -- -- 41
2019-08-09 18:00:00 23.1 35 Sudoeste 52 Sudoeste 0 -- -- 39
2019-08-09 17:00:00 24.7 38 Sudoeste 66 Sudoeste 0 -- -- 34
2019-08-09 16:00:00 24 32 Sudoeste 51 Sudoeste 0 -- -- 41
2019-08-09 15:00:00 22.9 34 Sudoeste 57 Sudoeste 0 -- -- 39
2019-08-09 14:00:00 23.6 33 Sudoeste 53 Sudoeste 0 -- -- 49
2019-08-09 13:00:00 21 30 Sudoeste 45 Sudoeste 0 -- -- 48
2019-08-09 12:00:00 18.1 29 Oeste 47 Sudoeste 0 -- -- 73
2019-08-09 11:00:00 17.8 27 Sudoeste 42 Sudoeste 0 -- -- 90
2019-08-09 10:00:00 17.3 24 Sudoeste 50 Sudoeste 0.8 -- -- 91
2019-08-09 09:00:00 18.4 24 Sudoeste 36 Sudoeste 0.2 -- -- 87
2019-08-09 08:00:00 18.8 22 Sudoeste 34 Sur 0 -- -- 80
2019-08-09 07:00:00 18.7 23 Sudoeste 37 Sudoeste 0 -- -- 79
2019-08-09 06:00:00 18.7 12 Sur 21 Sur 0 -- -- 77
2019-08-09 05:00:00 18.5 14 Sur 23 Sudoeste 0 -- -- 76
2019-08-09 04:00:00 19.2 14 Sudoeste 21 Sudoeste 0 -- -- 73
2019-08-09 03:00:00 19.6 14 Sudoeste 21 Sudoeste 0 -- -- 72
2019-08-09 02:00:00 20.4 10 Sudoeste 21 Sudoeste 0 -- -- 69
2019-08-09 01:00:00 20.8 11 Oeste 18 Sudoeste 0 -- -- 69
2019-08-09 00:00:00 21 7 Oeste 21 Oeste 0 -- -- 72
2019-08-08 23:00:00 22.2 15 Oeste 30 Oeste 0 -- -- 67
2019-08-08 22:00:00 23.7 18 Sudoeste 27 Oeste 0 -- -- 60
2019-08-08 21:00:00 25.1 17 Sudoeste 41 Sudoeste 0 -- -- 54
2019-08-08 20:00:00 27.1 25 Oeste 39 Sudoeste 0 -- -- 49
2019-08-08 19:00:00 26.8 28 Sudoeste 46 Sudoeste 0 -- -- 52
2019-08-08 18:00:00 27.1 29 Sudoeste 42 Sudoeste 0 -- -- 54
2019-08-08 17:00:00 26.5 27 Sudoeste 39 Sudoeste 0 -- -- 54
2019-08-08 16:00:00 25.8 24 Sudoeste 39 Sudoeste 0 -- -- 59
2019-08-08 15:00:00 24.3 22 Sudoeste 36 Sudoeste 0 -- -- 66
2019-08-08 14:00:00 22.8 23 Sudoeste 32 Sudoeste 0 -- -- 71
2019-08-08 13:00:00 21.6 21 Sudoeste 32 Sudoeste 0 -- -- 73
2019-08-08 12:00:00 19.4 22 Sudoeste 37 Sudoeste 0 -- -- 82
2019-08-08 11:00:00 19.7 18 Sudoeste 30 Sudoeste 0 -- -- 77
2019-08-08 10:00:00 18.6 14 Sudoeste 28 Sudoeste 0 -- -- 82
2019-08-08 09:00:00 17.7 10 Sudoeste 16 Sudoeste 0 -- -- 87
2019-08-08 08:00:00 17.2 6 Sudoeste 12 Sur 0 -- -- 89
2019-08-08 07:00:00 17 8 Sudoeste 12 Sudoeste 0 -- -- 90
2019-08-08 06:00:00 16.7 9 Sudoeste 24 Sudoeste 0 -- -- 91
2019-08-08 05:00:00 16.5 15 Sudoeste 25 Sudoeste 0 -- -- 90
2019-08-08 04:00:00 16.4 8 Sudoeste 15 Sudoeste 0 -- -- 91
2019-08-08 03:00:00 15.6 3 Sudeste 6 Sudeste 0 -- -- 92
2019-08-08 02:00:00 15.3 0 Calma 5 Noroeste 0 -- -- 92
2019-08-08 01:00:00 14.8 0 Calma 14 Oeste 0 -- -- 93
2019-08-08 00:00:00 15.4 0 Calma 6 Oeste 0 -- -- 90
2019-08-07 23:00:00 16.4 5 Oeste 16 Oeste 0 -- -- 89
2019-08-07 22:00:00 17 14 Oeste 31 Sudoeste 0.2 -- -- 87
2019-08-07 21:00:00 19.6 23 Sudoeste 32 Sudoeste 0 -- -- 69
2019-08-07 20:00:00 20.1 8 Oeste 30 Sudoeste 0 -- -- 63
2019-08-07 19:00:00 20.5 21 Sudoeste 48 Oeste 0 -- -- 61
2019-08-07 18:00:00 22.3 25 Oeste 42 Sudoeste 0 -- -- 54
2019-08-07 17:00:00 22.8 14 Sur 47 Sudoeste 0 -- -- 50
2019-08-07 16:00:00 23.6 25 Sudoeste 33 Sudoeste 0 -- -- 46
2019-08-07 15:00:00 25.3 18 Sudoeste 32 Sudoeste 0 -- -- 45
2019-08-07 14:00:00 25.4 22 Sudoeste 32 Sudoeste 0 -- -- 47
2019-08-07 13:00:00 24.8 15 Sudoeste 28 Sur 0 -- -- 46
2019-08-07 12:00:00 23.3 7 Sudoeste 16 Sur 0 -- -- 55
2019-08-07 11:00:00 20.9 6 Este 16 Este 0 -- -- 67
2019-08-07 10:00:00 18.1 5 Este 9 Este 0 -- -- 80
2019-08-07 09:00:00 15.8 2 Noroeste 5 Noroeste 0 -- -- 89
2019-08-07 08:00:00 14.9 0 Calma 4 Norte 0 -- -- 91
2019-08-07 07:00:00 14.7 2 Nordeste 8 Norte 0 -- -- 91
2019-08-07 06:00:00 14.9 3 Norte 5 Norte 0 -- -- 92
2019-08-07 05:00:00 15.3 0 Calma 8 Norte 0 -- -- 88
2019-08-07 04:00:00 15.7 0 Calma 6 Este 0 -- -- 88
2019-08-07 03:00:00 15.8 4 Norte 10 Nordeste 0 -- -- 88
2019-08-07 02:00:00 15.9 3 Norte 17 Nordeste 0 -- -- 89
2019-08-07 01:00:00 15.9 8 Este 27 Nordeste 0 -- -- 90
2019-08-07 00:00:00 16.2 17 Este 25 Este 0.4 -- -- 89
2019-08-06 23:00:00 17.2 9 Este 40 Nordeste 0 -- -- 83
2019-08-06 22:00:00 18.7 18 Nordeste 33 Nordeste 0 -- -- 74
2019-08-06 21:00:00 21.9 20 Nordeste 30 Nordeste 0 -- -- 63
2019-08-06 20:00:00 26 6 Noroeste 22 Noroeste 0 -- -- 36
2019-08-06 19:00:00 27 13 Oeste 22 Oeste 0 -- -- 35
2019-08-06 18:00:00 27.5 14 Sudoeste 27 Sudoeste 0 -- -- 35
2019-08-06 17:00:00 27.7 14 Oeste 26 Oeste 0 -- -- 33
2019-08-06 16:00:00 27.7 15 Sudoeste 26 Oeste 0 -- -- 34
2019-08-06 15:00:00 27.2 17 Oeste 29 Sudoeste 0 -- -- 37
2019-08-06 14:00:00 27.3 14 Sudoeste 36 Sudoeste 0 -- -- 39
2019-08-06 13:00:00 25.8 12 Sudoeste 22 Sudoeste 0 -- -- 43
2019-08-06 12:00:00 23.6 6 Sur 13 Sur 0 -- -- 50
2019-08-06 11:00:00 20.9 5 Sudoeste 12 Sudoeste 0 -- -- 54
2019-08-06 10:00:00 17.4 4 Noroeste 10 Noroeste 0 -- -- 74
2019-08-06 09:00:00 14.3 5 Norte 10 Noroeste 0 -- -- 86
2019-08-06 08:00:00 12.3 0 Calma 9 Norte 0 -- -- 91
2019-08-06 07:00:00 12.4 5 Nordeste 11 Noroeste 0 -- -- 90
2019-08-06 06:00:00 12.9 3 Noroeste 7 Noroeste 0 -- -- 89
2019-08-06 05:00:00 13.8 4 Norte 10 Noroeste 0 -- -- 87
2019-08-06 04:00:00 14.9 4 Norte 10 Norte 0 -- -- 84
2019-08-06 03:00:00 15.6 3 Noroeste 8 Norte 0 -- -- 80
2019-08-06 02:00:00 16.4 4 Nordeste 11 Nordeste 0 -- -- 78
2019-08-06 01:00:00 17.6 3 Noroeste 30 Este 0 -- -- 72
2019-08-06 00:00:00 18.3 15 Nordeste 27 Este 0 -- -- 65
2019-08-05 23:00:00 19.2 18 Nordeste 29 Nordeste 0 -- -- 63
2019-08-05 22:00:00 20.8 14 Nordeste 26 Nordeste 0 -- -- 63
2019-08-05 21:00:00 25.3 14 Nordeste 25 Nordeste 0 -- -- 52
2019-08-05 20:00:00 30.3 12 Sudoeste 25 Sudoeste 0 -- -- 30
2019-08-05 19:00:00 31.1 17 Sudoeste 32 Sudoeste 0 -- -- 28
2019-08-05 18:00:00 31.8 15 Sudoeste 29 Sudoeste 0 -- -- 26
2019-08-05 17:00:00 30.7 15 Sudoeste 36 Sudoeste 0 -- -- 29
2019-08-05 16:00:00 30.3 13 Sudoeste 28 Sudoeste 0 -- -- 35
2019-08-05 15:00:00 28.8 17 Oeste 28 Sudoeste 0 -- -- 35
2019-08-05 14:00:00 28.3 15 Sudoeste 26 Sudoeste 0 -- -- 40
2019-08-05 13:00:00 25.9 3 Nordeste 17 Sudoeste 0 -- -- 46
2019-08-05 12:00:00 24 6 Oeste 13 Oeste 0 -- -- 50
2019-08-05 11:00:00 21.9 4 Este 14 Este 0 -- -- 59
2019-08-05 10:00:00 18.6 8 Nordeste 13 Norte 0 -- -- 70
2019-08-05 09:00:00 13.7 4 Noroeste 11 Noroeste 0 -- -- 88
2019-08-05 08:00:00 11.6 6 Norte 12 Norte 0 -- -- 93
2019-08-05 07:00:00 11.8 4 Norte 7 Norte 0 -- -- 92
2019-08-05 06:00:00 12.8 4 Norte 8 Norte 0 -- -- 90
2019-08-05 05:00:00 13.7 5 Norte 9 Norte 0 -- -- 89
2019-08-05 04:00:00 14.4 3 Norte 8 Norte 0 -- -- 87
2019-08-05 03:00:00 15 0 Calma 11 Nordeste 0 -- -- 84
2019-08-05 02:00:00 15.5 3 Norte 16 Nordeste 0 -- -- 83
2019-08-05 01:00:00 15.9 5 Norte 18 Norte 0 -- -- 82
2019-08-05 00:00:00 16.3 6 Norte 33 Nordeste 0 -- -- 82
2019-08-04 23:00:00 16.6 22 Nordeste 34 Nordeste 0 -- -- 81
2019-08-04 22:00:00 18.5 18 Nordeste 35 Nordeste 0 -- -- 74
2019-08-04 21:00:00 25.7 18 Este 28 Nordeste 0 -- -- 51
2019-08-04 20:00:00 31.3 13 Sudoeste 25 Sur 0 -- -- 29
2019-08-04 19:00:00 31.7 8 Sur 32 Sudoeste 0 -- -- 29
2019-08-04 18:00:00 31.5 18 Sudoeste 35 Sudoeste 0 -- -- 28
2019-08-04 17:00:00 31.1 22 Oeste 39 Oeste 0 -- -- 30
2019-08-04 16:00:00 29.5 16 Oeste 34 Sudoeste 0 -- -- 34
2019-08-04 15:00:00 29.2 15 Oeste 29 Oeste 0 -- -- 37
2019-08-04 14:00:00 28.4 9 Sudoeste 21 Sudoeste 0 -- -- 38
2019-08-04 13:00:00 25.8 6 Sudoeste 17 Sur 0 -- -- 46
2019-08-04 12:00:00 23.5 4 Sudoeste 20 Este 0 -- -- 53
2019-08-04 11:00:00 21.8 9 Este 18 Este 0 -- -- 57
2019-08-04 10:00:00 19.2 7 Este 16 Este 0 -- -- 63
2019-08-04 09:00:00 14.9 3 Noroeste 6 Norte 0 -- -- 79
2019-08-04 08:00:00 12.6 0 Calma 7 Norte 0 -- -- 86
2019-08-04 07:00:00 12.9 5 Norte 10 Norte 0 -- -- 85
2019-08-04 06:00:00 12.8 3 Norte 10 Norte 0 -- -- 85
2019-08-04 05:00:00 13.8 6 Norte 9 Noroeste 0 -- -- 83
2019-08-04 04:00:00 14.8 2 Noroeste 11 Norte 0 -- -- 78
2019-08-04 03:00:00 16.1 4 Norte 6 Nordeste 0 -- -- 75
2019-08-04 02:00:00 17.1 4 Norte 11 Nordeste 0 -- -- 73
2019-08-04 01:00:00 18.1 3 Norte 14 Nordeste 0 -- -- 70
2019-08-04 00:00:00 19.4 5 Norte 22 Nordeste 0 -- -- 67
2019-08-03 23:00:00 20.4 13 Nordeste 33 Nordeste 0 -- -- 65
2019-08-03 22:00:00 22.8 18 Nordeste 36 Nordeste 0 -- -- 61
2019-08-03 21:00:00 26.1 23 Nordeste 41 Nordeste 0 -- -- 48
2019-08-03 20:00:00 31.9 10 Oeste 28 Sudoeste 0 -- -- 26
2019-08-03 19:00:00 33.2 17 Sudoeste 29 Oeste 0 -- -- 23
2019-08-03 18:00:00 32.9 13 Oeste 30 Sur 0 -- -- 23
2019-08-03 17:00:00 33 16 Oeste 33 Oeste 0 -- -- 25
2019-08-03 16:00:00 31.9 15 Oeste 29 Oeste 0 -- -- 25
2019-08-03 15:00:00 32.1 14 Sudoeste 28 Sudoeste 0 -- -- 24
2019-08-03 14:00:00 30.8 9 Sudoeste 21 Sur 0 -- -- 29
2019-08-03 13:00:00 30 9 Sudoeste 21 Sudoeste 0 -- -- 32
2019-08-03 12:00:00 28.1 9 Sur 19 Sudeste 0 -- -- 36
2019-08-03 11:00:00 25.3 4 Oeste 11 Sur 0 -- -- 39
2019-08-03 10:00:00 21.2 4 Noroeste 12 Noroeste 0 -- -- 48
2019-08-03 09:00:00 16 7 Norte 12 Noroeste 0 -- -- 63
2019-08-03 08:00:00 13.6 6 Norte 12 Norte 0 -- -- 66
2019-08-03 07:00:00 13.4 6 Norte 13 Nordeste 0 -- -- 68
2019-08-03 06:00:00 13.5 7 Norte 18 Noroeste 0 -- -- 72
2019-08-03 05:00:00 14.1 8 Norte 14 Noroeste 0 -- -- 75
2019-08-03 04:00:00 15.6 7 Norte 14 Norte 0 -- -- 72
2019-08-03 03:00:00 16 6 Norte 14 Este 0 -- -- 73
2019-08-03 02:00:00 16.8 5 Este 13 Este 0 -- -- 68
2019-08-03 01:00:00 18 0 Calma 10 Nordeste 0 -- -- 59
2019-08-03 00:00:00 19.4 3 Nordeste 19 Nordeste 0 -- -- 56
2019-08-02 23:00:00 20.5 8 Nordeste 26 Este 0 -- -- 52
2019-08-02 22:00:00 22.1 18 Nordeste 35 Nordeste 0 -- -- 48
2019-08-02 21:00:00 24.7 19 Nordeste 37 Nordeste 0 -- -- 44
2019-08-02 20:00:00 27.2 26 Nordeste 36 Nordeste 0 -- -- 43
2019-08-02 19:00:00 31.4 8 Oeste 22 Sur 0 -- -- 26
2019-08-02 18:00:00 30.6 9 Noroeste 23 Oeste 0 -- -- 27
2019-08-02 17:00:00 31.2 6 Sur 23 Oeste 0 -- -- 25
2019-08-02 16:00:00 29.9 10 Sudoeste 24 Sudeste 0 -- -- 28
2019-08-02 15:00:00 28.8 7 Norte 17 Norte 0 -- -- 30
2019-08-02 14:00:00 27.4 8 Sudoeste 19 Sudoeste 0 -- -- 34
2019-08-02 13:00:00 26.4 9 Sur 19 Este 0 -- -- 35
2019-08-02 12:00:00 23.1 5 Sur 11 Nordeste 0 -- -- 45
2019-08-02 11:00:00 19.6 6 Este 14 Este 0 -- -- 57
2019-08-02 10:00:00 16.1 9 Nordeste 15 Nordeste 0 -- -- 73
2019-08-02 09:00:00 12.8 4 Norte 15 Norte 0 -- -- 91
2019-08-02 08:00:00 11.1 8 Norte 14 Nordeste 0 -- -- 94
2019-08-02 07:00:00 10.9 6 Norte 13 Norte 0 -- -- 94
2019-08-02 06:00:00 11.4 4 Norte 10 Nordeste 0 -- -- 92
2019-08-02 05:00:00 11.8 4 Nordeste 10 Nordeste 0 -- -- 90
2019-08-02 04:00:00 12.6 3 Norte 8 Nordeste 0 -- -- 87
2019-08-02 03:00:00 13 3 Norte 10 Noroeste 0 -- -- 87
2019-08-02 02:00:00 13.5 4 Noroeste 11 Nordeste 0 -- -- 85
2019-08-02 01:00:00 13.9 9 Nordeste 19 Este 0 -- -- 84
2019-08-02 00:00:00 14.4 5 Norte 22 Nordeste 0 -- -- 82
2019-08-01 23:00:00 15.1 9 Nordeste 36 Nordeste 0 -- -- 80
2019-08-01 22:00:00 16.2 19 Nordeste 38 Nordeste 0 -- -- 76
2019-08-01 21:00:00 19 21 Este 41 Nordeste 0 -- -- 67
2019-08-01 20:00:00 21.9 21 Nordeste 36 Nordeste 0 -- -- 62
2019-08-01 19:00:00 24.4 22 Nordeste 36 Nordeste 0 -- -- 55
2019-08-01 18:00:00 24.4 21 Nordeste 36 Nordeste 0 -- -- 54
2019-08-01 17:00:00 26 16 Este 28 Este 0 -- -- 49
2019-08-01 16:00:00 25.7 6 Este 21 Sudeste 0 -- -- 49
2019-08-01 15:00:00 24.7 12 Nordeste 24 Este 0 -- -- 53
2019-08-01 14:00:00 24.2 9 Nordeste 21 Este 0 -- -- 57
2019-08-01 13:00:00 22.8 10 Este 25 Este 0 -- -- 60
2019-08-01 12:00:00 21 14 Este 24 Este 0 -- -- 64
2019-08-01 11:00:00 18.4 15 Nordeste 30 Nordeste 0 -- -- 69
2019-08-01 10:00:00 17.1 14 Nordeste 27 Este 0 -- -- 73
2019-08-01 09:00:00 14.4 11 Nordeste 23 Nordeste 0 -- -- 81
2019-08-01 08:00:00 12.5 6 Nordeste 15 Nordeste 0 -- -- 86
2019-08-01 07:00:00 12.3 5 Norte 19 Nordeste 0 -- -- 86
2019-08-01 06:00:00 12.3 6 Norte 18 Nordeste 0 -- -- 86
2019-08-01 05:00:00 12.7 5 Nordeste 14 Nordeste 0 -- -- 81
2019-08-01 04:00:00 13.2 3 Norte 15 Este 0 -- -- 79
2019-08-01 03:00:00 13.6 7 Norte 20 Nordeste 0 -- -- 78
2019-08-01 02:00:00 14.1 4 Norte 26 Este 0 -- -- 78
2019-08-01 01:00:00 14.8 15 Nordeste 38 Nordeste 0 -- -- 76
2019-08-01 00:00:00 15.2 19 Nordeste 39 Nordeste 0 -- -- 75
2019-07-31 23:00:00 15.8 14 Nordeste 27 Nordeste 0 -- -- 75
2019-07-31 22:00:00 17.2 11 Nordeste 31 Nordeste 0 -- -- 68
2019-07-31 21:00:00 18.9 22 Nordeste 34 Nordeste 0 -- -- 61
2019-07-31 20:00:00 21 15 Nordeste 32 Este 0 -- -- 52
2019-07-31 19:00:00 23.1 13 Nordeste 30 Este 0 -- -- 45
2019-07-31 18:00:00 24 15 Nordeste 29 Este 0 -- -- 43
2019-07-31 17:00:00 25.1 16 Este 30 Sudeste 0 -- -- 39
2019-07-31 16:00:00 24.3 14 Este 29 Nordeste 0 -- -- 38
2019-07-31 15:00:00 23.8 13 Este 29 Nordeste 0 -- -- 39
2019-07-31 14:00:00 21.6 12 Este 28 Este 0 -- -- 44
2019-07-31 13:00:00 20.6 15 Nordeste 25 Este 0 -- -- 46
2019-07-31 12:00:00 18.9 11 Nordeste 26 Este 0 -- -- 51
2019-07-31 11:00:00 16.8 10 Nordeste 23 Nordeste 0 -- -- 59
2019-07-31 10:00:00 14 12 Nordeste 26 Nordeste 0 -- -- 69
2019-07-31 09:00:00 11.5 8 Nordeste 19 Nordeste 0 -- -- 81
2019-07-31 08:00:00 9.2 5 Norte 13 Norte 0 -- -- 91
2019-07-31 07:00:00 9 4 Norte 12 Este 0 -- -- 90
2019-07-31 06:00:00 9.5 4 Este 17 Este 0 -- -- 89
2019-07-31 05:00:00 9.9 5 Nordeste 24 Nordeste 0 -- -- 89
2019-07-31 04:00:00 10.1 13 Nordeste 26 Nordeste 0 -- -- 89
2019-07-31 03:00:00 10.2 7 Este 37 Nordeste 0 -- -- 86
2019-07-31 02:00:00 10.6 23 Nordeste 40 Nordeste 0 -- -- 85
2019-07-31 01:00:00 10.7 19 Nordeste 35 Nordeste 0 -- -- 85
2019-07-31 00:00:00 11.1 20 Nordeste 34 Nordeste 0 -- -- 84
2019-07-30 23:00:00 11.7 17 Nordeste 30 Este 0 -- -- 81
2019-07-30 22:00:00 13 15 Nordeste 36 Nordeste 0 -- -- 74
2019-07-30 21:00:00 15.6 20 Nordeste 35 Nordeste 0 -- -- 63
2019-07-30 20:00:00 18.1 19 Nordeste 35 Nordeste 0 -- -- 55
2019-07-30 19:00:00 20.2 23 Nordeste 40 Este 0 -- -- 50
2019-07-30 18:00:00 21.8 21 Nordeste 36 Nordeste 0 -- -- 45
2019-07-30 17:00:00 23.7 12 Sudeste 25 Este 0 -- -- 37
2019-07-30 16:00:00 20.7 7 Este 23 Este 0 -- -- 42
2019-07-30 15:00:00 20 9 Norte 19 Sur 0 -- -- 43
2019-07-30 14:00:00 20.2 7 Sudeste 22 Este 0 -- -- 45
2019-07-30 13:00:00 19.2 7 Norte 16 Noroeste 0 -- -- 47
2019-07-30 12:00:00 15.6 3 Noroeste 10 Norte 0 -- -- 60
2019-07-30 11:00:00 14.2 3 Norte 12 Noroeste 0 -- -- 73
2019-07-30 10:00:00 14.6 5 Este 11 Sudeste 0 -- -- 79
2019-07-30 09:00:00 11.8 5 Norte 9 Nordeste 0 -- -- 89
2019-07-30 08:00:00 10.8 3 Norte 6 Nordeste 0 -- -- 92
2019-07-30 07:00:00 10.6 0 Calma 7 Nordeste 0 -- -- 92
2019-07-30 06:00:00 11.2 3 Norte 8 Noroeste 0 -- -- 91
2019-07-30 05:00:00 10.9 3 Norte 6 Noroeste 0 -- -- 93
2019-07-30 04:00:00 10 0 Calma 5 Este 0 -- -- 92
2019-07-30 03:00:00 11.4 3 Nordeste 6 Norte 0 -- -- 88
2019-07-30 02:00:00 12.2 3 Nordeste 15 Sudeste 0 -- -- 88
2019-07-30 01:00:00 12.2 9 Este 17 Este 0 -- -- 87
2019-07-30 00:00:00 13.4 4 Sudeste 20 Este 0 -- -- 81
2019-07-29 23:00:00 14 12 Este 22 Este 0 -- -- 80
2019-07-29 22:00:00 18 7 Oeste 24 Oeste 0 -- -- 45
2019-07-29 21:00:00 21.2 19 Oeste 32 Oeste 0 -- -- 37
2019-07-29 20:00:00 23.2 22 Oeste 35 Oeste 0 -- -- 36
2019-07-29 19:00:00 24.3 22 Oeste 40 Oeste 0 -- -- 36
2019-07-29 18:00:00 25 22 Oeste 37 Oeste 0 -- -- 37
2019-07-29 17:00:00 25.4 20 Oeste 37 Oeste 0 -- -- 36
2019-07-29 16:00:00 24.8 16 Oeste 35 Sudoeste 0 -- -- 38
2019-07-29 15:00:00 23.9 20 Oeste 35 Oeste 0 -- -- 38
2019-07-29 14:00:00 23.1 17 Sudoeste 38 Sudoeste 0 -- -- 42
2019-07-29 13:00:00 22.1 19 Sudoeste 36 Oeste 0 -- -- 48
2019-07-29 12:00:00 20.7 17 Sudoeste 28 Sudoeste 0 -- -- 55
2019-07-29 11:00:00 19.4 15 Oeste 21 Oeste 0 -- -- 60
2019-07-29 10:00:00 14.3 6 Sur 9 Sur 0 -- -- 78
2019-07-29 09:00:00 10.3 2 Norte 8 Nordeste 0 -- -- 89
2019-07-29 08:00:00 7.4 4 Norte 8 Norte 0 -- -- 94
2019-07-29 07:00:00 7.4 4 Norte 8 Nordeste 0 -- -- 93
2019-07-29 06:00:00 7.5 2 Norte 6 Nordeste 0 -- -- 93
2019-07-29 05:00:00 8.2 2 Norte 8 Nordeste 0 -- -- 92
2019-07-29 04:00:00 8.8 3 Norte 8 Nordeste 0 -- -- 91
2019-07-29 03:00:00 9.8 2 Oeste 9 Norte 0 -- -- 88
2019-07-29 02:00:00 10.7 4 Norte 9 Norte 0 -- -- 86
2019-07-29 01:00:00 12.3 5 Norte 9 Noroeste 0 -- -- 81
2019-07-29 00:00:00 13.1 4 Norte 8 Noroeste 0 -- -- 73
2019-07-28 23:00:00 14.2 3 Norte 4 Norte 0 -- -- 63
2019-07-28 22:00:00 18.4 0 Calma 9 Oeste 0 -- -- 51
2019-07-28 21:00:00 23.2 8 Oeste 19 Sudoeste 0 -- -- 37
2019-07-28 20:00:00 24.2 14 Oeste 29 Oeste 0 -- -- 31
2019-07-28 19:00:00 24.3 12 Oeste 27 Sudoeste 0 -- -- 35
2019-07-28 18:00:00 23.9 15 Oeste 29 Oeste 0 -- -- 34
2019-07-28 17:00:00 23.4 11 Oeste 26 Oeste 0 -- -- 37
2019-07-28 16:00:00 21.9 17 Sudoeste 30 Sudoeste 0 -- -- 43
2019-07-28 15:00:00 20.7 14 Oeste 24 Oeste 0 -- -- 53
2019-07-28 14:00:00 18.7 9 Sudoeste 21 Oeste 0 -- -- 55
2019-07-28 13:00:00 18.4 8 Sur 20 Sudoeste 0 -- -- 66
2019-07-28 12:00:00 16.1 8 Sudoeste 16 Sudoeste 0 -- -- 68
2019-07-28 11:00:00 13.4 5 Noroeste 9 Oeste 0 -- -- 81
2019-07-28 10:00:00 11 3 Norte 8 Oeste 0 -- -- 100
2019-07-28 09:00:00 8.8 3 Norte 8 Norte 0 -- -- 100
2019-07-28 08:00:00 6.9 2 Norte 11 Noroeste 0 -- -- 99
2019-07-28 07:00:00 6.4 6 Norte 10 Norte 0 -- -- 98
2019-07-28 06:00:00 6.2 4 Norte 7 Nordeste 0 -- -- 97
2019-07-28 05:00:00 6.9 4 Noroeste 14 Nordeste 0 -- -- 97
2019-07-28 04:00:00 8.1 3 Noroeste 9 Norte 0 -- -- 96
2019-07-28 03:00:00 8.5 0 Calma 8 Nordeste 0 -- -- 96
2019-07-28 02:00:00 9.6 0 Calma 8 Sudoeste 0 -- -- 93
2019-07-28 01:00:00 10.9 2 Sur 9 Este 0 -- -- 91
2019-07-28 00:00:00 11.5 3 Nordeste 13 Nordeste 0 -- -- 90
2019-07-27 23:00:00 11.8 4 Nordeste 12 Este 0 -- -- 87
2019-07-26 12:00:00 -- -- -- -- -- -- -- -- --
2019-07-26 11:00:00 17.3 11 Este 30 Este 0.2 -- -- 80
2019-07-26 10:00:00 17.9 10 Este 24 Este 0 -- -- 76
2019-07-26 09:00:00 17.1 11 Nordeste 26 Nordeste 0 -- -- 81
2019-07-26 08:00:00 16.8 6 Nordeste 16 Nordeste 0 -- -- 86
2019-07-26 07:00:00 16.4 9 Nordeste 22 Nordeste 0 -- -- 87
2019-07-26 06:00:00 16.4 11 Este 23 Este 0 -- -- 87
2019-07-26 05:00:00 16.8 5 Nordeste 21 Nordeste 0 -- -- 84
2019-07-26 04:00:00 16.9 2 Norte 6 Nordeste 0 -- -- 83
2019-07-26 03:00:00 17.1 3 Norte 18 Nordeste 0 -- -- 82
2019-07-26 02:00:00 17.6 7 Norte 14 Norte 0 -- -- 77
2019-07-26 01:00:00 17.7 4 Este 24 Nordeste 0 -- -- 75
2019-07-26 00:00:00 17.9 13 Este 34 Nordeste 0 -- -- 76